Airfield :







YOU CAN JOIN US ON...

 
LOGIN :

Register | Disclaimer

   EN    FR    IT 

 









Legend :    VFR   Marginal VFR   IFR   Intensive IFR   Very Intensive IFR
Visi :
Ceiling :
>= 8 km
>= 3000ft
5 to 8 km
1000 to 3000 ft
1500m to 5 km
500 to 1000 ft
800 to 1500m
200 to 500 ft
< 800m
< 200 ft
Symbols :   Thunderstorms  Fog  Heavy snow  Heavy precipitations  Wind > 20 kt






- Airport Elevation : 1161 ft


KBML - Berlin Regional

CURRENT METAR :
  • 220052Z AUTO VRB04KT 8SM -RA BKN110 22/19 A2959 RMK AO2 LTG DSNT NE-S RAB2358E11B15 SLP014 P0005 T02220189

EXPIRED METARs :
  • 220034Z AUTO 00000KT 6SM -RA FEW049 SCT070 OVC100 22/19 A2958 RMK AO2 LTG DSNT S RAB2358E11B15 P0004 T02220189
  • 220012Z AUTO VRB04KT 9SM VCTS FEW048 SCT060 BKN120 23/21 A2959 RMK AO2 LTG DSNT SW-NW RAB2358E11 PRESRR P0000 T02280206
  • 212352Z AUTO 14004KT 10SM FEW046 SCT075 BKN095 23/21 A2956 RMK AO2 LTG DSNT SW-NW RAB19E52 SLP004 P0005 60005 T02280206 10322 20228 53005
  • 212343Z AUTO 01004KT 8SM -RA FEW050 BKN065 OVC120 23/20 A2955 RMK AO2 LTG DSNT SW AND W RAB19 P0005 T02330200
  • 212334Z AUTO 31003KT 2SM -RA SCT049 BKN065 OVC100 23/20 A2956 RMK AO2 LTG DSNT SW AND W RAB19 P0004 T02330200
  • 212252Z AUTO 17009KT 10SM FEW085 OVC120 28/18 A2954 RMK AO2 LTG DSNT ALQDS RAB29E38 SLP999 P0000 T02830178

TAF N/A
KZBW FIR / North America



MET'MAP, your aeronautical weather chart ! - Copyright ORBIFLY December 2007 - Disclaimer

ORBIFLY MET'MAP TEAM :

Programming & Development : Alexandra Zaïnal
Concept & original design : Baudouin d'Aumeries
Assistance for programming : Marc-Olivier Méhu
Technical & hardware support : Manuel Goepfert

Contact : metmap@orbifly.com




SOURCES & CREDITS :

   NOAA